Leesburg, VA (20175)

8:29 PM EDT en Julio 30, 2016 (GMT -0400)
Emerald Park Estates | | Change Station
Aviso en curso: Areal Flood Warning

Alt 424 ft 39.08 °N, 77.59 °W | Updated 2 seconds ago

Rain
Lluvia
69.7 ° F
Sensación térmica 69.7 ° F
N
0.0
Viento Variable Viento desde SO
Gusts 1.0 mph

Hoy
Alta -- | Baja -- ° F
--% Posibilidad de precipitaciones
Ayer
Alta -- | Baja -- ° F
Precip. -- pul
Presión 29.98 pul
Visibilidad 7.0 Millas
Nubes Muy nublado 12000 ft
Punto de rocío 69 ° F
Humedad 97%
Precipitaciones 0.68 pul
Espesor de la nieve No disponible.
6:09 AM 8:23 PM
Creciente menguante, 10% visible
METAR KJYO 310015Z AUTO 17006KT 7SM RA BKN120 22/22 A2998 RMK AO2 LTG DSNT NE E AND SW
Presión 29.98 pul
Visibilidad 7.0 Millas
Nubes Muy nublado 12000 ft
Punto de rocío 69 ° F
Humedad 97%
Precipitaciones 0.68 pul
Espesor de la nieve No disponible.
6:09 AM 8:23 PM
Creciente menguante, 10% visible
METAR KJYO 310015Z AUTO 17006KT 7SM RA BKN120 22/22 A2998 RMK AO2 LTG DSNT NE E AND SW

10-Day Weather Forecast

Almanac

Astronomía

Jul. 30, 2016 Salida Puesta
Hora real
Crepúsculo civil
Crepúsculo náutico
Crepúsculo astronómico
Luna
Horas de luz
Horas de luz
Tomorrow will be .
, % of the Moon is Illuminated

Extremos de hoy

Máximos del estado Bajos del estado

Community

WunderPhotos

Upload Photos

1,928,682 ¡fotos cargadas!

WunderBlog® & News

Nearby

Calidad del aire

  Calidad del aire Índice AQ Contaminante
Not available.

Grosos de nieve

Estación Profundido Altura

Actividad de terremotos

Ciudad Distance Mag. Tiempo y dato
Magnitud mínima muestra es 2,5.

Temperaturas de aguas costeras

Lugar Temperatura

Stations

Estaciones meteorológicas cercanas

Ubicación de la estación Temp. Vientos helados Punto de rocío Humedad Viento Precip. Alt Actualizado Tipo
                   

Watches & Warnings

Areal Flood Warning
Issued: 7:31 PM EDT Jul. 30, 2016 – National Weather Service

The National Weather Service in Sterling Virginia has issued a

* Flood Warning for...
northwestern Montgomery County in central Maryland...
southeastern Frederick County in north central Maryland...
northeastern Loudoun County in northern Virginia...

* until 1030 PM EDT

* at 731 PM EDT... Doppler radar indicated thunderstorms producing
heavy rain which will cause flooding. Up to three inches of rain
have already fallen.

* Some locations that will experience flooding include...
Germantown... Leesburg... Damascus... Lansdowne... Poolesville... North
Potomac... Boyds... Green Valley... Point of Rocks... Clarksburg...
Darnestown... Adamstown... Lovettsville... Buckeystown... Hamilton...
Monrovia... Barnesville... Dickerson... Waterford and Hughesville.

Precautionary/preparedness actions...

Turn around... don't drown when encountering flooded roads. Most flood
deaths occur in vehicles.


Lat... Lon 3936 7719 3911 7725 3907 7767 3929 7766


Rcm